Time;durP1;ratioP1;P1;durP2;ratioP2;P2;SDS_P1;SDS_P2;PMS_P1;PMS_P2;Temp;Humidity;BMP_temperature;BMP_pressure;BME280_temperature;BME280_humidity;BME280_pressure;Samples;Min_cycle;Max_cycle;Signal;HPM_P1;HPM_P2
2022/07/19 00:01:08;;;;;;;;;;;;;;;10.88;85.92;99010.81;4715931;30;19930;-84
2022/07/19 00:03:35;;;;;;;;;;;;;;;10.82;85.83;99009.91;4715680;30;20025;-84
2022/07/19 00:06:03;;;;;;;;;;;;;;;10.82;86.00;99002.63;4715903;30;19963;-85
2022/07/19 00:08:30;;;;;;;;;;;;;;;10.84;86.15;99014.00;4715027;30;19977;-82
2022/07/19 00:10:57;;;;;;;;;;;;;;;10.79;86.18;98999.63;4715480;30;19941;-83
2022/07/19 00:13:23;;;;;;;;;;;;;;;10.73;86.31;99005.97;4715674;30;20037;-82
2022/07/19 00:15:51;;;;;;;;;;;;;;;10.69;86.71;99002.97;4715515;30;19931;-84
2022/07/19 00:18:18;;;;;;;;;;;;;;;10.68;86.87;99009.41;4716371;30;19931;-84
2022/07/19 00:20:45;;;;;;;;;;;;;;;10.68;86.79;99005.91;4700919;30;19930;-85
2022/07/19 00:23:12;;;;;;;;;;;;;;;10.64;86.94;99008.28;4688962;30;20001;-83
2022/07/19 00:25:39;;;;;;;;;;;;;;;10.61;87.01;99009.59;4719022;30;19930;-84
2022/07/19 00:28:06;;;;;;;;;;;;;;;10.59;87.30;99006.31;4703827;30;20354;-83
2022/07/19 00:30:33;;;;;;;;;;;;;;;10.58;87.34;99009.25;4719343;30;20315;-83
2022/07/19 00:33:04;;;;;;;;;;;;;;;10.50;87.67;99004.25;4717820;30;19930;-85
2022/07/19 00:35:31;;;;;;;;;;;;;;;10.49;87.73;99011.53;4719125;30;20407;-84
2022/07/19 00:38:03;;;;;;;;;;;;;;;10.47;88.26;99010.13;4721311;30;19984;-82
2022/07/19 00:40:29;;;;;;;;;;;;;;;10.41;88.18;99011.94;4736663;30;19930;-83
2022/07/19 00:42:56;;;;;;;;;;;;;;;10.38;88.40;99018.63;4735169;30;20735;-84
2022/07/19 00:45:24;;;;;;;;;;;;;;;10.35;88.58;99013.69;4736667;30;20003;-84
2022/07/19 00:47:51;;;;;;;;;;;;;;;10.37;88.80;99018.88;4706428;30;19984;-84
2022/07/19 00:50:18;;;;;;;;;;;;;;;10.34;88.75;99014.78;4735299;30;19931;-84
2022/07/19 00:52:46;;;;;;;;;;;;;;;10.30;88.82;99008.22;4736021;30;19930;-84
2022/07/19 00:55:13;;;;;;;;;;;;;;;10.27;88.86;99019.47;4736223;30;19937;-84
2022/07/19 00:57:41;;;;;;;;;;;;;;;10.24;89.04;99011.88;4734710;30;20406;-84
2022/07/19 01:00:09;;;;;;;;;;;;;;;10.20;89.27;99008.84;4720657;30;20034;-84
2022/07/19 01:02:37;;;;;;;;;;;;;;;10.17;89.28;99014.69;4736066;30;20354;-83
2022/07/19 01:05:04;;;;;;;;;;;;;;;10.17;89.35;99019.28;4735834;30;19930;-83
2022/07/19 01:07:31;;;;;;;;;;;;;;;10.15;89.45;99022.25;4735928;30;19976;-83
2022/07/19 01:09:58;;;;;;;;;;;;;;;10.15;89.38;99026.78;4735777;30;19938;-83
2022/07/19 01:12:26;;;;;;;;;;;;;;;10.14;89.51;99028.66;4720147;30;19936;-83
2022/07/19 01:14:57;;;;;;;;;;;;;;;10.14;89.33;99017.88;4691549;30;19931;-84
2022/07/19 01:17:24;;;;;;;;;;;;;;;10.16;89.39;99033.84;4736067;30;19937;-83
2022/07/19 01:19:51;;;;;;;;;;;;;;;10.18;89.38;99020.94;4734401;30;19934;-83
2022/07/19 01:22:18;;;;;;;;;;;;;;;10.22;88.98;99015.88;4735728;30;20033;-84
2022/07/19 01:24:45;;;;;;;;;;;;;;;10.17;88.94;99014.69;4734320;30;20355;-82
2022/07/19 01:27:12;;;;;;;;;;;;;;;10.26;88.67;99020.53;4720028;30;19937;-84
2022/07/19 01:29:41;;;;;;;;;;;;;;;10.24;88.69;99014.56;4735848;30;19973;-83
2022/07/19 01:32:08;;;;;;;;;;;;;;;10.23;88.63;99021.03;4734556;30;20041;-83
2022/07/19 01:34:35;;;;;;;;;;;;;;;10.21;88.65;99025.84;4733366;30;19931;-83
2022/07/19 01:37:02;;;;;;;;;;;;;;;10.17;88.74;99021.97;4735321;30;20418;-82
2022/07/19 01:39:29;;;;;;;;;;;;;;;10.14;89.01;99019.78;4735643;30;19930;-81
2022/07/19 01:42:29;;;;;;;;;;;;;;;10.10;89.07;99024.00;4733323;30;19942;-83
2022/07/19 01:44:56;;;;;;;;;;;;;;;10.07;89.26;99021.78;4735212;30;20430;-83
2022/07/19 01:47:23;;;;;;;;;;;;;;;10.04;89.24;99024.97;4735507;30;19930;-83
2022/07/19 01:49:50;;;;;;;;;;;;;;;10.06;89.24;99025.56;4734583;30;19930;-83
2022/07/19 01:52:17;;;;;;;;;;;;;;;10.01;89.48;99033.53;4735756;30;20382;-84
2022/07/19 01:54:44;;;;;;;;;;;;;;;10.04;89.58;99030.38;4736054;30;20012;-83
2022/07/19 01:57:11;;;;;;;;;;;;;;;10.07;89.51;99029.88;4734756;30;20379;-84
2022/07/19 01:59:38;;;;;;;;;;;;;;;10.05;89.49;99032.00;4735490;30;19992;-83
2022/07/19 02:02:06;;;;;;;;;;;;;;;10.11;89.28;99034.56;4735106;30;19992;-84
2022/07/19 02:04:33;;;;;;;;;;;;;;;10.14;89.17;99038.66;4719589;30;19930;-83
2022/07/19 02:07:00;;;;;;;;;;;;;;;10.19;88.88;99036.03;4733475;30;19934;-83
2022/07/19 02:09:27;;;;;;;;;;;;;;;10.23;88.68;99037.22;4733860;30;19944;-82
2022/07/19 02:11:59;;;;;;;;;;;;;;;10.28;88.35;99040.03;4734658;30;19934;-82
2022/07/19 02:14:26;;;;;;;;;;;;;;;10.35;88.04;99037.97;4734997;30;19934;-83
2022/07/19 02:16:53;;;;;;;;;;;;;;;10.39;87.71;99041.84;4734611;30;20061;-83
2022/07/19 02:19:21;;;;;;;;;;;;;;;10.46;87.46;99043.56;4734847;30;20025;-83
2022/07/19 02:21:48;;;;;;;;;;;;;;;10.51;86.96;99041.78;4734482;30;19993;-83
2022/07/19 02:24:15;;;;;;;;;;;;;;;10.56;86.53;99044.59;4733655;30;19937;-84
2022/07/19 02:26:42;;;;;;;;;;;;;;;10.60;86.38;99044.91;4734564;30;19930;-82
2022/07/19 02:29:09;;;;;;;;;;;;;;;10.64;86.15;99046.06;4734677;30;19930;-83
2022/07/19 02:31:36;;;;;;;;;;;;;;;10.73;85.80;99049.97;4734582;30;20363;-83
2022/07/19 02:34:04;;;;;;;;;;;;;;;10.83;84.96;99050.16;4733306;30;20470;-84
2022/07/19 02:36:31;;;;;;;;;;;;;;;10.91;84.42;99050.81;4733195;30;19980;-83
2022/07/19 02:38:59;;;;;;;;;;;;;;;10.96;84.06;99049.03;4733925;30;19935;-83
2022/07/19 02:41:26;;;;;;;;;;;;;;;11.01;83.44;99046.41;4734399;30;19930;-84
2022/07/19 02:43:53;;;;;;;;;;;;;;;11.03;82.94;99054.25;4718480;30;19962;-82
2022/07/19 02:46:20;;;;;;;;;;;;;;;11.02;82.90;99048.03;4734328;30;19930;-82
2022/07/19 02:48:47;;;;;;;;;;;;;;;10.97;83.17;99044.44;4734407;30;19934;-83
2022/07/19 02:51:19;;;;;;;;;;;;;;;10.92;83.49;99052.47;4735004;30;20025;-83
2022/07/19 02:53:45;;;;;;;;;;;;;;;10.87;83.70;99057.78;4733843;30;19973;-84
2022/07/19 02:56:12;;;;;;;;;;;;;;;10.80;84.06;99052.53;4734422;30;20009;-83
2022/07/19 02:58:39;;;;;;;;;;;;;;;10.72;84.54;99045.66;4734340;30;19956;-83
2022/07/19 03:01:06;;;;;;;;;;;;;;;10.74;84.71;99056.22;4734076;30;19973;-83
2022/07/19 03:03:43;;;;;;;;;;;;;;;10.71;84.67;99057.53;4732650;30;19985;-84
2022/07/19 03:06:11;;;;;;;;;;;;;;;10.70;84.79;99055.06;4734260;30;19930;-84
2022/07/19 03:08:38;;;;;;;;;;;;;;;10.70;84.68;99065.84;4734178;30;19969;-84
2022/07/19 03:11:05;;;;;;;;;;;;;;;10.67;84.74;99059.06;4734212;30;19964;-85
2022/07/19 03:13:32;;;;;;;;;;;;;;;10.68;84.63;99059.88;4733008;30;20024;-84
2022/07/19 03:15:59;;;;;;;;;;;;;;;10.70;84.81;99055.88;4722315;30;20029;-83
2022/07/19 03:18:27;;;;;;;;;;;;;;;10.84;84.52;99056.38;4716178;30;19931;-84
2022/07/19 03:20:55;;;;;;;;;;;;;;;11.07;83.86;99050.00;4716547;30;20026;-83
2022/07/19 03:23:23;;;;;;;;;;;;;;;11.40;82.71;99059.13;4716422;30;19930;-83
2022/07/19 03:25:50;;;;;;;;;;;;;;;11.77;81.63;99053.13;4715999;30;19930;-83
2022/07/19 03:28:17;;;;;;;;;;;;;;;11.97;80.34;99058.81;4716319;30;19930;-83
2022/07/19 03:30:44;;;;;;;;;;;;;;;12.02;79.64;99061.56;4716509;30;19931;-84
2022/07/19 03:33:11;;;;;;;;;;;;;;;12.05;79.32;99071.06;4716199;30;19930;-84
2022/07/19 03:35:38;;;;;;;;;;;;;;;11.99;78.55;99061.28;4715318;30;19936;-84
2022/07/19 03:38:05;;;;;;;;;;;;;;;11.98;78.58;99059.66;4716201;30;19969;-84
2022/07/19 03:40:31;;;;;;;;;;;;;;;12.09;78.30;99069.50;4716158;30;19930;-83
2022/07/19 03:42:58;;;;;;;;;;;;;;;12.20;77.65;99067.72;4715835;30;20017;-84
2022/07/19 03:45:25;;;;;;;;;;;;;;;12.29;77.61;99072.44;4716172;30;19930;-83
2022/07/19 03:47:52;;;;;;;;;;;;;;;12.32;77.30;99066.53;4716092;30;19938;-83
2022/07/19 03:50:22;;;;;;;;;;;;;;;12.49;76.65;99071.84;4716095;30;19930;-84
2022/07/19 03:52:49;;;;;;;;;;;;;;;12.55;76.43;99062.69;4715794;30;19934;-84
2022/07/19 03:55:16;;;;;;;;;;;;;;;12.50;76.10;99068.06;4714624;30;20387;-83
2022/07/19 03:57:43;;;;;;;;;;;;;;;12.49;76.17;99077.25;4742746;30;20007;-83
2022/07/19 04:00:09;;;;;;;;;;;;;;;12.42;76.30;99062.28;4715565;30;19931;-84
2022/07/19 04:02:40;;;;;;;;;;;;;;;12.38;76.42;99064.69;4713115;30;20283;-84
2022/07/19 04:05:08;;;;;;;;;;;;;;;12.41;76.39;99069.59;4714406;30;19977;-83
2022/07/19 04:07:35;;;;;;;;;;;;;;;12.45;76.69;99078.84;4712486;30;20029;-83
2022/07/19 04:10:02;;;;;;;;;;;;;;;12.50;76.63;99067.25;4714147;30;19935;-83
2022/07/19 04:12:29;;;;;;;;;;;;;;;12.55;76.03;99070.81;4714593;30;20466;-83
2022/07/19 04:15:10;;;;;;;;;;;;;;;12.67;76.16;99077.97;4714448;30;20354;-83
2022/07/19 04:17:38;;;;;;;;;;;;;;;12.72;75.52;99075.31;4714441;30;19935;-83
2022/07/19 04:20:06;;;;;;;;;;;;;;;12.72;75.46;99064.47;4714835;30;20055;-83
2022/07/19 04:22:33;;;;;;;;;;;;;;;12.71;75.33;99073.66;4711040;30;19930;-82
2022/07/19 04:25:02;;;;;;;;;;;;;;;12.72;75.38;99067.19;4713943;30;19931;-84
2022/07/19 04:27:30;;;;;;;;;;;;;;;12.75;75.15;99061.25;4714466;30;19993;-84
2022/07/19 04:29:57;;;;;;;;;;;;;;;12.80;75.16;99069.44;4713969;30;20035;-83
2022/07/19 04:32:24;;;;;;;;;;;;;;;12.80;74.66;99072.94;4714068;30;20041;-84
2022/07/19 04:34:51;;;;;;;;;;;;;;;12.80;74.78;99074.84;4713881;30;20029;-84
2022/07/19 04:37:18;;;;;;;;;;;;;;;12.82;74.55;99070.00;4713231;30;19938;-82
2022/07/19 04:39:45;;;;;;;;;;;;;;;12.89;74.40;99076.00;4714395;30;20311;-84
2022/07/19 04:42:14;;;;;;;;;;;;;;;12.98;74.10;99074.44;4712181;30;19930;-84
2022/07/19 04:44:41;;;;;;;;;;;;;;;13.06;73.92;99073.16;4713835;30;20361;-84
2022/07/19 04:47:09;;;;;;;;;;;;;;;13.22;73.87;99069.50;4714050;30;19941;-83
2022/07/19 04:49:38;;;;;;;;;;;;;;;13.41;73.57;99072.63;4714536;30;19938;-84
2022/07/19 04:52:05;;;;;;;;;;;;;;;13.43;72.95;99059.63;4698126;30;19930;-83
2022/07/19 04:54:32;;;;;;;;;;;;;;;13.38;72.43;99067.72;4713948;30;19935;-83
2022/07/19 04:56:59;;;;;;;;;;;;;;;13.37;72.60;99068.81;4712592;30;20481;-83
2022/07/19 04:59:26;;;;;;;;;;;;;;;13.46;72.65;99063.72;4714104;30;19930;-84
2022/07/19 05:01:56;;;;;;;;;;;;;;;13.58;72.20;99063.53;4713870;30;19970;-83
2022/07/19 05:04:32;;;;;;;;;;;;;;;13.63;71.82;99066.25;4713321;30;19952;-82
2022/07/19 05:06:59;;;;;;;;;;;;;;;13.64;71.46;99062.47;4699373;30;19931;-82
2022/07/19 05:09:27;;;;;;;;;;;;;;;13.78;71.35;99060.91;4716273;30;19930;-84
2022/07/19 05:11:54;;;;;;;;;;;;;;;13.92;70.82;99058.53;4717536;30;19937;-84
2022/07/19 05:14:21;;;;;;;;;;;;;;;14.05;70.43;99055.34;4716930;30;19988;-83
2022/07/19 05:16:49;;;;;;;;;;;;;;;14.18;69.96;99058.59;4716637;30;20040;-84
2022/07/19 05:19:17;;;;;;;;;;;;;;;14.35;69.65;99059.19;4717007;30;19930;-84
2022/07/19 05:21:43;;;;;;;;;;;;;;;14.48;68.56;99063.31;4715916;30;19930;-85
2022/07/19 05:24:10;;;;;;;;;;;;;;;14.25;67.96;99059.19;4715423;30;19930;-83
2022/07/19 05:26:37;;;;;;;;;;;;;;;14.32;67.34;99059.75;4716981;30;19937;-83
2022/07/19 05:29:05;;;;;;;;;;;;;;;14.36;66.94;99062.75;4717432;30;19997;-82
2022/07/19 05:31:37;;;;;;;;;;;;;;;14.50;66.81;99061.13;4716777;30;19930;-84
2022/07/19 05:34:05;;;;;;;;;;;;;;;14.62;66.35;99061.75;4716219;30;19938;-85
2022/07/19 05:36:34;;;;;;;;;;;;;;;14.70;65.53;99060.38;4716953;30;19939;-83
2022/07/19 05:39:02;;;;;;;;;;;;;;;14.74;65.74;99056.88;4716337;30;19965;-82
2022/07/19 05:41:29;;;;;;;;;;;;;;;14.86;65.00;99055.78;4716391;30;19934;-83
2022/07/19 05:43:59;;;;;;;;;;;;;;;14.90;64.88;99054.16;4737920;30;20249;-84
2022/07/19 05:46:26;;;;;;;;;;;;;;;14.89;64.11;99058.78;4716892;30;19965;-84
2022/07/19 05:48:53;;;;;;;;;;;;;;;14.92;63.44;99057.41;4714219;30;20418;-83
2022/07/19 05:51:20;;;;;;;;;;;;;;;15.06;63.58;99061.22;4716097;30;20021;-84
2022/07/19 05:53:47;;;;;;;;;;;;;;;15.16;63.63;99061.19;4715893;30;20188;-84
2022/07/19 05:56:14;;;;;;;;;;;;;;;15.29;62.50;99048.13;4716697;30;19930;-83
2022/07/19 05:58:41;;;;;;;;;;;;;;;15.32;62.53;99050.34;4736920;30;19930;-82
2022/07/19 06:01:17;;;;;;;;;;;;;;;15.41;62.06;99059.53;4714844;30;20124;-84
2022/07/19 06:03:46;;;;;;;;;;;;;;;15.48;61.50;99059.28;4715706;30;19937;-84
2022/07/19 06:06:13;;;;;;;;;;;;;;;15.32;61.00;99053.06;4736728;30;20284;-82
2022/07/19 06:08:40;;;;;;;;;;;;;;;15.46;60.77;99051.38;4715126;30;19931;-83
2022/07/19 06:11:08;;;;;;;;;;;;;;;15.62;60.72;99057.59;4714439;30;20260;-83
2022/07/19 06:13:35;;;;;;;;;;;;;;;15.58;60.53;99054.63;4715636;30;19930;-83
2022/07/19 06:16:03;;;;;;;;;;;;;;;15.60;60.50;99047.00;4715515;30;19931;-84
2022/07/19 06:18:34;;;;;;;;;;;;;;;15.85;58.94;99058.09;4714432;30;20367;-83
2022/07/19 06:21:02;;;;;;;;;;;;;;;16.07;58.62;99046.84;4713078;30;20314;-83
2022/07/19 06:23:29;;;;;;;;;;;;;;;15.85;58.73;99050.75;4716689;30;19938;-86
2022/07/19 06:25:56;;;;;;;;;;;;;;;15.88;58.75;99050.19;4736422;30;20311;-84
2022/07/19 06:28:23;;;;;;;;;;;;;;;15.71;59.30;99055.97;4714552;30;20059;-85
2022/07/19 06:30:50;;;;;;;;;;;;;;;15.95;58.36;99055.34;4715191;30;19968;-86
2022/07/19 06:33:17;;;;;;;;;;;;;;;16.12;57.04;99063.97;4716234;30;19937;-86
2022/07/19 06:35:44;;;;;;;;;;;;;;;16.29;55.47;99058.19;4700137;30;19938;-84
2022/07/19 06:38:11;;;;;;;;;;;;;;;16.64;54.88;99065.31;4713367;30;19935;-86
2022/07/19 06:40:38;;;;;;;;;;;;;;;16.94;54.23;99052.59;4718012;30;19938;-85
2022/07/19 06:43:05;;;;;;;;;;;;;;;17.10;53.48;99075.09;4716470;30;19981;-83
2022/07/19 06:45:32;;;;;;;;;;;;;;;17.13;54.10;99063.59;4716359;30;20021;-85
2022/07/19 06:47:59;;;;;;;;;;;;;;;17.30;53.80;99069.44;4716604;30;19941;-86
2022/07/19 06:50:26;;;;;;;;;;;;;;;17.27;53.74;99066.50;4717404;30;19941;-84
2022/07/19 06:53:07;;;;;;;;;;;;;;;17.61;52.80;99065.59;4715853;30;19935;-85
2022/07/19 06:55:34;;;;;;;;;;;;;;;17.83;51.34;99067.84;4715297;30;19937;-84
2022/07/19 06:58:01;;;;;;;;;;;;;;;17.58;52.49;99064.28;4714782;30;19931;-85
2022/07/19 07:00:28;;;;;;;;;;;;;;;17.12;53.95;99062.00;4715390;30;20411;-84
2022/07/19 07:02:57;;;;;;;;;;;;;;;16.55;55.71;99066.19;4716074;30;19981;-84
2022/07/19 07:05:24;;;;;;;;;;;;;;;16.37;56.40;99059.50;4715275;30;19931;-85
2022/07/19 07:07:53;;;;;;;;;;;;;;;16.32;56.68;99071.22;4716107;30;19931;-84
2022/07/19 07:10:20;;;;;;;;;;;;;;;16.59;56.34;99067.28;4716439;30;20430;-83
2022/07/19 07:12:48;;;;;;;;;;;;;;;16.96;55.52;99052.28;4716123;30;19969;-84
2022/07/19 07:15:15;;;;;;;;;;;;;;;17.25;54.31;99065.97;4713757;30;19931;-84
2022/07/19 07:17:42;;;;;;;;;;;;;;;17.52;53.94;99057.22;4715491;30;19953;-84
2022/07/19 07:20:10;;;;;;;;;;;;;;;17.45;54.69;99067.69;4716323;30;20021;-85
2022/07/19 07:22:37;;;;;;;;;;;;;;;17.67;53.88;99065.28;4715054;30;19931;-85
2022/07/19 07:25:05;;;;;;;;;;;;;;;17.86;53.13;99070.81;4715843;30;19930;-86
2022/07/19 07:27:34;;;;;;;;;;;;;;;17.96;53.39;99067.97;4716164;30;19957;-85
2022/07/19 07:30:01;;;;;;;;;;;;;;;18.04;53.01;99065.69;4714444;30;19982;-83
2022/07/19 07:32:29;;;;;;;;;;;;;;;17.91;52.67;99062.56;4715110;30;19980;-85
2022/07/19 07:34:58;;;;;;;;;;;;;;;18.04;52.02;99073.88;4714283;30;20368;-84
2022/07/19 07:37:29;;;;;;;;;;;;;;;17.73;52.52;99058.63;4716294;30;19930;-85
2022/07/19 07:39:56;;;;;;;;;;;;;;;17.74;52.94;99056.72;4719062;30;19931;-86
2022/07/19 07:42:24;;;;;;;;;;;;;;;17.91;53.24;99065.28;4714815;30;19948;-86
2022/07/19 07:44:52;;;;;;;;;;;;;;;18.14;52.51;99069.09;4714347;30;19939;-85
2022/07/19 07:47:19;;;;;;;;;;;;;;;18.14;51.95;99058.16;4713189;30;20296;-84
2022/07/19 07:49:50;;;;;;;;;;;;;;;18.29;51.56;99072.75;4712920;30;19936;-84
2022/07/19 07:52:18;;;;;;;;;;;;;;;18.65;50.25;99066.78;4708356;30;19938;-85
2022/07/19 07:54:45;;;;;;;;;;;;;;;19.05;47.56;99074.34;4706902;30;19992;-83
2022/07/19 07:57:32;;;;;;;;;;;;;;;18.70;47.85;99072.16;4713472;30;20422;-86
2022/07/19 07:59:59;;;;;;;;;;;;;;;18.33;48.10;99071.88;4714023;30;19938;-86
2022/07/19 08:02:27;;;;;;;;;;;;;;;18.33;47.52;99063.66;4735273;30;19931;-86
2022/07/19 08:04:54;;;;;;;;;;;;;;;18.45;47.56;99079.63;4712729;30;20418;-85
2022/07/19 08:07:21;;;;;;;;;;;;;;;18.78;46.68;99079.72;4714181;30;20022;-84
2022/07/19 08:09:48;;;;;;;;;;;;;;;18.89;45.28;99062.06;4713174;30;19965;-85
2022/07/19 08:12:15;;;;;;;;;;;;;;;18.84;45.41;99062.13;4714799;30;20050;-85
2022/07/19 08:14:42;;;;;;;;;;;;;;;18.99;45.26;99069.25;4714025;30;19937;-85
2022/07/19 08:17:12;;;;;;;;;;;;;;;19.20;43.97;99061.53;4712812;30;19937;-84
2022/07/19 08:19:39;;;;;;;;;;;;;;;19.24;44.58;99074.34;4734545;30;19937;-84
2022/07/19 08:22:06;;;;;;;;;;;;;;;19.49;43.87;99075.78;4713896;30;19981;-85
2022/07/19 08:24:33;;;;;;;;;;;;;;;19.38;43.11;99065.34;4714457;30;20058;-85
2022/07/19 08:27:00;;;;;;;;;;;;;;;19.74;42.81;99065.50;4698056;30;19941;-84
2022/07/19 08:29:28;;;;;;;;;;;;;;;19.57;43.20;99071.56;4714341;30;20029;-85
2022/07/19 08:31:55;;;;;;;;;;;;;;;19.56;43.33;99074.59;4713652;30;19969;-84
2022/07/19 08:34:22;;;;;;;;;;;;;;;19.60;43.83;99072.88;4710676;30;19954;-85
2022/07/19 08:36:49;;;;;;;;;;;;;;;19.19;44.44;99087.25;4714038;30;20338;-87
2022/07/19 08:39:16;;;;;;;;;;;;;;;19.31;44.14;99084.88;4713852;30;20347;-83
2022/07/19 08:41:44;;;;;;;;;;;;;;;20.26;42.57;99082.53;4712552;30;19989;-83
2022/07/19 08:44:12;;;;;;;;;;;;;;;20.72;41.25;99070.56;4715556;30;19930;-86
2022/07/19 08:46:40;;;;;;;;;;;;;;;20.92;41.69;99061.06;4716920;30;20022;-85
2022/07/19 08:49:07;;;;;;;;;;;;;;;21.40;40.43;99054.94;4716861;30;20292;-84
2022/07/19 08:51:35;;;;;;;;;;;;;;;20.55;41.35;99062.19;4717027;30;19937;-85
2022/07/19 08:54:03;;;;;;;;;;;;;;;19.99;42.73;99055.16;4715337;30;19931;-84
2022/07/19 08:59:16;;;;;;;;;;;;;;;20.49;41.29;99064.22;4717273;30;19935;-86
2022/07/19 09:01:43;;;;;;;;;;;;;;;21.17;40.23;99064.28;4716612;30;19938;-85
2022/07/19 09:04:17;;;;;;;;;;;;;;;20.71;40.11;99068.13;4715600;30;20318;-85
2022/07/19 09:06:54;;;;;;;;;;;;;;;20.06;40.83;99069.28;4715107;30;19935;-84
2022/07/19 09:09:27;;;;;;;;;;;;;;;19.70;42.39;99059.84;4716914;30;19931;-84
2022/07/19 09:11:55;;;;;;;;;;;;;;;19.48;42.68;99055.00;4737473;30;19937;-86
2022/07/19 09:14:25;;;;;;;;;;;;;;;19.68;42.18;99050.31;4717094;30;19930;-85
2022/07/19 09:17:06;;;;;;;;;;;;;;;19.97;41.98;99054.66;4716536;30;20014;-83
2022/07/19 09:19:52;;;;;;;;;;;;;;;20.12;41.24;99065.28;4667120;30;20371;-84
2022/07/19 09:22:19;;;;;;;;;;;;;;;20.05;41.96;99052.03;4679558;30;20124;-82
2022/07/19 09:24:48;;;;;;;;;;;;;;;20.22;42.17;99047.81;4680171;30;20018;-85
2022/07/19 09:27:17;;;;;;;;;;;;;;;20.49;42.06;99049.72;4680092;30;19982;-85
2022/07/19 09:29:53;;;;;;;;;;;;;;;20.31;42.64;99062.44;4628829;31;19940;-84
2022/07/19 09:32:21;;;;;;;;;;;;;;;19.99;42.97;99045.00;4614069;31;19981;-84
2022/07/19 09:35:03;;;;;;;;;;;;;;;20.38;41.99;99062.81;4611572;31;19932;-85
2022/07/19 09:37:34;;;;;;;;;;;;;;;20.40;41.75;99046.88;4615027;31;19932;-84
2022/07/19 09:40:03;;;;;;;;;;;;;;;20.27;41.34;99051.25;4628557;31;20076;-86
2022/07/19 09:42:36;;;;;;;;;;;;;;;20.80;40.56;99047.09;4602009;31;19932;-85
2022/07/19 09:45:04;;;;;;;;;;;;;;;21.32;39.17;99057.56;4629115;31;19936;-85
2022/07/19 09:47:35;;;;;;;;;;;;;;;21.62;38.93;99045.00;4629233;31;19968;-83
2022/07/19 09:50:14;;;;;;;;;;;;;;;22.48;37.09;99060.97;4628265;31;19932;-84
2022/07/19 09:52:41;;;;;;;;;;;;;;;23.24;36.11;99048.59;4628697;31;19975;-83
2022/07/19 09:55:14;;;;;;;;;;;;;;;24.40;34.79;99049.41;4648604;30;20005;-84
2022/07/19 09:57:44;;;;;;;;;;;;;;;24.62;35.11;99046.34;4680048;30;20453;-84
2022/07/19 10:00:12;;;;;;;;;;;;;;;23.11;36.77;99041.34;4679800;30;20001;-85
2022/07/19 10:02:40;;;;;;;;;;;;;;;22.11;38.33;99053.25;4681207;30;19982;-84
2022/07/19 10:05:09;;;;;;;;;;;;;;;21.13;40.78;99049.56;4683413;30;19932;-86
2022/07/19 10:07:36;;;;;;;;;;;;;;;20.59;43.05;99040.47;4700679;30;19937;-85
2022/07/19 10:10:07;;;;;;;;;;;;;;;20.17;44.49;99054.22;4715467;30;19948;-84
2022/07/19 10:12:37;;;;;;;;;;;;;;;19.78;45.88;99043.81;4715739;30;20029;-83
2022/07/19 10:15:05;;;;;;;;;;;;;;;19.66;46.42;99058.78;4716009;30;20122;-84
2022/07/19 10:17:39;;;;;;;;;;;;;;;19.67;47.26;99059.63;4716474;30;19941;-85
2022/07/19 10:20:06;;;;;;;;;;;;;;;19.35;47.73;99058.53;4713598;30;20410;-84
2022/07/19 10:22:33;;;;;;;;;;;;;;;19.17;48.33;99059.41;4700567;30;20356;-84
2022/07/19 10:25:03;;;;;;;;;;;;;;;19.08;48.26;99064.75;4715249;30;20040;-85
2022/07/19 10:27:33;;;;;;;;;;;;;;;19.45;47.77;99057.56;4716105;30;19930;-83
2022/07/19 10:30:12;;;;;;;;;;;;;;;20.43;46.19;99048.97;4715424;30;20417;-84
2022/07/19 10:32:41;;;;;;;;;;;;;;;22.08;42.84;99047.28;4716331;30;19989;-84
2022/07/19 10:35:28;;;;;;;;;;;;;;;22.44;41.20;99053.66;4715210;30;20045;-85
2022/07/19 10:38:02;;;;;;;;;;;;;;;21.17;43.23;99056.06;4713108;30;19937;-85
2022/07/19 10:40:48;;;;;;;;;;;;;;;21.00;44.03;99046.56;4715093;30;19938;-84
2022/07/19 10:43:16;;;;;;;;;;;;;;;21.52;42.59;99062.59;4715829;30;19931;-84
2022/07/19 10:45:59;;;;;;;;;;;;;;;21.44;41.49;99038.63;4714931;30;19942;-85
2022/07/19 10:48:39;;;;;;;;;;;;;;;21.52;40.57;99040.63;4716469;30;19988;-86
2022/07/19 10:51:10;;;;;;;;;;;;;;;21.96;40.20;99047.06;4716198;30;19931;-85
2022/07/19 10:53:43;;;;;;;;;;;;;;;23.79;37.68;99042.28;4715943;30;19931;-86
2022/07/19 10:56:17;;;;;;;;;;;;;;;24.80;34.08;99024.94;4716059;30;19930;-84
2022/07/19 10:58:48;;;;;;;;;;;;;;;24.11;34.19;99031.75;4715796;30;19941;-84
2022/07/19 11:01:17;;;;;;;;;;;;;;;23.61;35.28;99015.94;4716271;30;19957;-84
2022/07/19 11:03:45;;;;;;;;;;;;;;;24.37;34.47;99033.53;4743970;30;20391;-84
2022/07/19 11:06:23;;;;;;;;;;;;;;;24.54;33.60;99007.81;4715112;30;20038;-84
2022/07/19 11:08:55;;;;;;;;;;;;;;;23.69;34.46;99017.84;4714143;30;20459;-81
2022/07/19 11:11:23;;;;;;;;;;;;;;;22.84;35.67;99013.06;4714560;30;20295;-85
2022/07/19 11:13:54;;;;;;;;;;;;;;;23.28;35.40;99013.78;4713184;30;20252;-85
2022/07/19 11:16:42;;;;;;;;;;;;;;;23.41;37.21;99022.19;4712118;30;19931;-85
2022/07/19 11:19:12;;;;;;;;;;;;;;;23.10;38.96;99034.25;4710951;30;19931;-86
2022/07/19 11:21:41;;;;;;;;;;;;;;;21.60;42.34;99037.09;4715273;30;20025;-83
2022/07/19 11:24:08;;;;;;;;;;;;;;;22.06;42.33;99032.22;4715479;30;20363;-84
2022/07/19 11:26:36;;;;;;;;;;;;;;;23.41;40.33;99020.22;4714370;30;19976;-84
2022/07/19 11:29:10;;;;;;;;;;;;;;;24.80;38.15;99035.16;4715676;30;19936;-85
2022/07/19 11:31:45;;;;;;;;;;;;;;;24.38;36.93;99027.69;4699621;30;19930;-84
2022/07/19 11:34:14;;;;;;;;;;;;;;;23.13;39.78;99017.88;4714851;30;19930;-86
2022/07/19 11:36:41;;;;;;;;;;;;;;;23.10;39.80;99023.25;4711811;30;19965;-85
2022/07/19 11:39:08;;;;;;;;;;;;;;;24.96;37.17;99027.06;4710352;30;19930;-83
2022/07/19 11:41:36;;;;;;;;;;;;;;;25.00;36.04;99012.25;4715283;30;20387;-83
2022/07/19 11:44:04;;;;;;;;;;;;;;;25.61;35.03;99014.34;4715661;30;20469;-83
2022/07/19 11:46:37;;;;;;;;;;;;;;;24.49;36.39;99011.56;4715843;30;19935;-83
2022/07/19 11:49:05;;;;;;;;;;;;;;;23.54;38.16;99007.38;4715228;30;20044;-83
2022/07/19 11:51:35;;;;;;;;;;;;;;;23.15;38.84;99007.34;4715454;30;20008;-83
2022/07/19 11:54:03;;;;;;;;;;;;;;;23.31;38.56;99013.13;4715488;30;19931;-83
2022/07/19 11:56:31;;;;;;;;;;;;;;;24.86;35.82;99003.44;4715504;30;20341;-84
2022/07/19 11:59:02;;;;;;;;;;;;;;;25.44;35.25;99004.28;4715281;30;19931;-83
2022/07/19 12:01:33;;;;;;;;;;;;;;;26.41;33.06;98993.56;4714336;30;19957;-84
2022/07/19 12:04:15;;;;;;;;;;;;;;;27.19;31.43;99002.47;4713966;30;19931;-82
2022/07/19 12:06:52;;;;;;;;;;;;;;;27.10;31.55;98999.84;4714050;30;19962;-83
2022/07/19 12:09:27;;;;;;;;;;;;;;;27.07;30.51;98995.03;4713116;30;19981;-83
2022/07/19 12:11:54;;;;;;;;;;;;;;;25.74;32.68;98998.56;4713657;30;19930;-83
2022/07/19 12:14:25;;;;;;;;;;;;;;;26.67;31.89;99004.22;4715546;30;20449;-84
2022/07/19 12:17:11;;;;;;;;;;;;;;;26.61;31.85;98994.53;4715733;30;19969;-83
2022/07/19 12:19:39;;;;;;;;;;;;;;;26.98;31.48;98986.06;4718436;30;20024;-83
2022/07/19 12:22:29;;;;;;;;;;;;;;;24.94;33.55;98991.53;4718862;30;19934;-84
2022/07/19 12:24:56;;;;;;;;;;;;;;;23.72;36.14;98999.84;4717922;30;19931;-83
2022/07/19 12:27:58;;;;;;;;;;;;;;;23.16;37.14;98997.16;4671145;30;19935;-84
2022/07/19 12:30:26;;;;;;;;;;;;;;;25.09;35.17;98976.25;4682752;30;19932;-84
2022/07/19 12:33:05;;;;;;;;;;;;;;;27.43;32.36;98974.63;4681629;30;20022;-83
2022/07/19 12:35:40;;;;;;;;;;;;;;;28.61;29.97;98995.16;4670104;30;20063;-83
2022/07/19 12:38:09;;;;;;;;;;;;;;;28.82;27.97;98981.69;4671677;30;19943;-83
2022/07/19 12:40:36;;;;;;;;;;;;;;;26.05;31.80;98975.06;4673044;30;20072;-84
2022/07/19 12:43:03;;;;;;;;;;;;;;;23.45;35.93;98985.41;4671574;30;20034;-82
2022/07/19 12:45:33;;;;;;;;;;;;;;;22.50;38.47;99008.38;4671429;30;20030;-83
2022/07/19 12:48:01;;;;;;;;;;;;;;;21.36;40.37;99009.97;4672665;30;20054;-83
2022/07/19 12:50:53;;;;;;;;;;;;;;;20.52;43.49;99008.75;4672744;30;20396;-83
2022/07/19 12:53:21;;;;;;;;;;;;;;;19.80;48.47;99025.97;4627384;31;20007;-83
2022/07/19 12:56:14;;;;;;;;;;;;;;;19.36;50.77;99032.78;4600975;30;20297;-83
2022/07/19 13:01:26;;;;;;;;;;;;;;;18.60;53.37;99034.84;4629284;30;20026;-83
2022/07/19 13:03:56;;;;;;;;;;;;;;;18.51;54.24;99029.25;4645822;30;19970;-83